sensor_id;sensor_type;location;lat;lon;timestamp;P1;durP1;ratioP1;P2;durP2;ratioP2
11427;SDS011;5770;44.504;11.346;2023-04-25T00:01:54;13.60;;;3.63;;
11427;SDS011;5770;44.504;11.346;2023-04-25T00:04:22;6.80;;;2.70;;
11427;SDS011;5770;44.504;11.346;2023-04-25T00:06:53;7.20;;;2.50;;
11427;SDS011;5770;44.504;11.346;2023-04-25T00:09:20;5.78;;;2.42;;
11427;SDS011;5770;44.504;11.346;2023-04-25T00:11:48;6.38;;;2.78;;
11427;SDS011;5770;44.504;11.346;2023-04-25T00:14:16;8.13;;;2.50;;
11427;SDS011;5770;44.504;11.346;2023-04-25T00:16:43;7.05;;;2.80;;
11427;SDS011;5770;44.504;11.346;2023-04-25T00:19:10;6.65;;;2.38;;
11427;SDS011;5770;44.504;11.346;2023-04-25T00:21:38;7.53;;;2.60;;
11427;SDS011;5770;44.504;11.346;2023-04-25T00:24:06;6.10;;;2.78;;
11427;SDS011;5770;44.504;11.346;2023-04-25T00:26:34;9.65;;;2.60;;
11427;SDS011;5770;44.504;11.346;2023-04-25T00:29:01;4.57;;;2.35;;
11427;SDS011;5770;44.504;11.346;2023-04-25T00:31:30;5.82;;;2.10;;
11427;SDS011;5770;44.504;11.346;2023-04-25T00:33:57;5.78;;;2.70;;
11427;SDS011;5770;44.504;11.346;2023-04-25T00:36:24;9.27;;;2.80;;
11427;SDS011;5770;44.504;11.346;2023-04-25T00:38:52;7.97;;;2.75;;
11427;SDS011;5770;44.504;11.346;2023-04-25T00:41:19;7.97;;;2.70;;
11427;SDS011;5770;44.504;11.346;2023-04-25T00:43:47;6.50;;;2.88;;
11427;SDS011;5770;44.504;11.346;2023-04-25T00:46:14;4.80;;;2.50;;
11427;SDS011;5770;44.504;11.346;2023-04-25T00:48:43;7.95;;;2.80;;
11427;SDS011;5770;44.504;11.346;2023-04-25T00:51:10;8.30;;;2.78;;
11427;SDS011;5770;44.504;11.346;2023-04-25T00:53:40;8.02;;;2.97;;
11427;SDS011;5770;44.504;11.346;2023-04-25T00:56:07;5.88;;;2.60;;
11427;SDS011;5770;44.504;11.346;2023-04-25T00:58:35;8.93;;;3.13;;
11427;SDS011;5770;44.504;11.346;2023-04-25T01:01:02;7.32;;;2.42;;
11427;SDS011;5770;44.504;11.346;2023-04-25T01:03:29;8.20;;;2.60;;
11427;SDS011;5770;44.504;11.346;2023-04-25T01:06:02;11.73;;;2.80;;
11427;SDS011;5770;44.504;11.346;2023-04-25T01:08:29;9.60;;;3.13;;
11427;SDS011;5770;44.504;11.346;2023-04-25T01:10:56;6.07;;;2.38;;
11427;SDS011;5770;44.504;11.346;2023-04-25T01:13:23;7.75;;;3.00;;
11427;SDS011;5770;44.504;11.346;2023-04-25T01:15:50;7.18;;;3.38;;
11427;SDS011;5770;44.504;11.346;2023-04-25T01:18:18;6.20;;;2.55;;
11427;SDS011;5770;44.504;11.346;2023-04-25T01:20:46;9.10;;;2.97;;
11427;SDS011;5770;44.504;11.346;2023-04-25T01:23:15;10.02;;;3.30;;
11427;SDS011;5770;44.504;11.346;2023-04-25T01:25:42;6.82;;;2.72;;
11427;SDS011;5770;44.504;11.346;2023-04-25T01:28:09;8.25;;;3.05;;
11427;SDS011;5770;44.504;11.346;2023-04-25T01:30:37;6.35;;;2.70;;
11427;SDS011;5770;44.504;11.346;2023-04-25T01:33:05;8.82;;;2.97;;
11427;SDS011;5770;44.504;11.346;2023-04-25T01:35:34;7.97;;;3.25;;
11427;SDS011;5770;44.504;11.346;2023-04-25T01:38:01;11.50;;;3.67;;
11427;SDS011;5770;44.504;11.346;2023-04-25T01:40:30;7.38;;;3.22;;
11427;SDS011;5770;44.504;11.346;2023-04-25T01:42:58;8.38;;;3.15;;
11427;SDS011;5770;44.504;11.346;2023-04-25T01:45:25;13.55;;;3.70;;
11427;SDS011;5770;44.504;11.346;2023-04-25T01:47:52;6.97;;;3.38;;
11427;SDS011;5770;44.504;11.346;2023-04-25T01:50:20;6.93;;;3.25;;
11427;SDS011;5770;44.504;11.346;2023-04-25T01:52:47;8.25;;;4.00;;
11427;SDS011;5770;44.504;11.346;2023-04-25T01:55:14;9.48;;;3.90;;
11427;SDS011;5770;44.504;11.346;2023-04-25T01:57:44;8.95;;;3.70;;
11427;SDS011;5770;44.504;11.346;2023-04-25T02:00:12;9.65;;;3.53;;
11427;SDS011;5770;44.504;11.346;2023-04-25T02:02:39;7.57;;;3.28;;
11427;SDS011;5770;44.504;11.346;2023-04-25T02:05:07;6.78;;;3.65;;
11427;SDS011;5770;44.504;11.346;2023-04-25T02:07:34;10.23;;;3.63;;
11427;SDS011;5770;44.504;11.346;2023-04-25T02:10:02;7.75;;;3.40;;
11427;SDS011;5770;44.504;11.346;2023-04-25T02:12:30;8.38;;;2.90;;
11427;SDS011;5770;44.504;11.346;2023-04-25T02:14:58;6.75;;;2.97;;
11427;SDS011;5770;44.504;11.346;2023-04-25T02:17:25;8.73;;;3.30;;
11427;SDS011;5770;44.504;11.346;2023-04-25T02:19:53;8.75;;;3.58;;
11427;SDS011;5770;44.504;11.346;2023-04-25T02:22:20;12.52;;;3.22;;
11427;SDS011;5770;44.504;11.346;2023-04-25T02:24:47;11.43;;;3.47;;
11427;SDS011;5770;44.504;11.346;2023-04-25T02:27:14;7.63;;;3.13;;
11427;SDS011;5770;44.504;11.346;2023-04-25T02:29:41;9.63;;;3.42;;
11427;SDS011;5770;44.504;11.346;2023-04-25T02:32:10;9.50;;;3.63;;
11427;SDS011;5770;44.504;11.346;2023-04-25T02:34:37;12.55;;;3.65;;
11427;SDS011;5770;44.504;11.346;2023-04-25T02:37:07;9.43;;;3.20;;
11427;SDS011;5770;44.504;11.346;2023-04-25T02:39:35;7.68;;;3.53;;
11427;SDS011;5770;44.504;11.346;2023-04-25T02:42:02;8.25;;;4.25;;
11427;SDS011;5770;44.504;11.346;2023-04-25T02:44:29;8.07;;;3.28;;
11427;SDS011;5770;44.504;11.346;2023-04-25T02:46:56;7.85;;;3.33;;
11427;SDS011;5770;44.504;11.346;2023-04-25T02:49:25;9.68;;;3.50;;
11427;SDS011;5770;44.504;11.346;2023-04-25T02:51:52;10.60;;;3.20;;
11427;SDS011;5770;44.504;11.346;2023-04-25T02:54:19;9.35;;;3.72;;
11427;SDS011;5770;44.504;11.346;2023-04-25T02:56:46;10.50;;;3.65;;
11427;SDS011;5770;44.504;11.346;2023-04-25T02:59:13;7.95;;;3.70;;
11427;SDS011;5770;44.504;11.346;2023-04-25T03:01:40;6.30;;;3.00;;
11427;SDS011;5770;44.504;11.346;2023-04-25T03:04:08;10.98;;;3.63;;
11427;SDS011;5770;44.504;11.346;2023-04-25T03:06:36;10.15;;;3.20;;
11427;SDS011;5770;44.504;11.346;2023-04-25T03:09:03;7.90;;;3.17;;
11427;SDS011;5770;44.504;11.346;2023-04-25T03:11:30;13.05;;;3.30;;
11427;SDS011;5770;44.504;11.346;2023-04-25T03:13:57;10.63;;;3.92;;
11427;SDS011;5770;44.504;11.346;2023-04-25T03:16:24;10.93;;;3.35;;
11427;SDS011;5770;44.504;11.346;2023-04-25T03:18:52;12.30;;;3.35;;
11427;SDS011;5770;44.504;11.346;2023-04-25T03:21:19;10.77;;;3.35;;
11427;SDS011;5770;44.504;11.346;2023-04-25T03:23:47;10.45;;;3.70;;
11427;SDS011;5770;44.504;11.346;2023-04-25T03:26:16;9.15;;;3.75;;
11427;SDS011;5770;44.504;11.346;2023-04-25T03:28:43;12.27;;;3.65;;
11427;SDS011;5770;44.504;11.346;2023-04-25T03:31:10;10.40;;;3.00;;
11427;SDS011;5770;44.504;11.346;2023-04-25T03:33:37;9.23;;;3.22;;
11427;SDS011;5770;44.504;11.346;2023-04-25T03:36:05;6.82;;;3.20;;
11427;SDS011;5770;44.504;11.346;2023-04-25T03:38:32;9.43;;;3.38;;
11427;SDS011;5770;44.504;11.346;2023-04-25T03:41:01;6.82;;;3.13;;
11427;SDS011;5770;44.504;11.346;2023-04-25T03:43:28;11.40;;;3.85;;
11427;SDS011;5770;44.504;11.346;2023-04-25T03:45:55;9.73;;;3.08;;
11427;SDS011;5770;44.504;11.346;2023-04-25T03:48:22;10.85;;;3.08;;
11427;SDS011;5770;44.504;11.346;2023-04-25T03:50:51;8.00;;;3.03;;
11427;SDS011;5770;44.504;11.346;2023-04-25T03:53:18;11.23;;;3.17;;
11427;SDS011;5770;44.504;11.346;2023-04-25T03:55:45;10.55;;;3.45;;
11427;SDS011;5770;44.504;11.346;2023-04-25T03:58:14;8.70;;;2.88;;
11427;SDS011;5770;44.504;11.346;2023-04-25T04:00:41;5.85;;;2.78;;
11427;SDS011;5770;44.504;11.346;2023-04-25T04:03:08;7.20;;;3.15;;
11427;SDS011;5770;44.504;11.346;2023-04-25T04:05:36;7.45;;;3.30;;
11427;SDS011;5770;44.504;11.346;2023-04-25T04:08:05;9.13;;;3.53;;
11427;SDS011;5770;44.504;11.346;2023-04-25T04:10:32;7.60;;;2.95;;
11427;SDS011;5770;44.504;11.346;2023-04-25T04:12:59;12.50;;;3.65;;
11427;SDS011;5770;44.504;11.346;2023-04-25T04:15:28;12.93;;;3.60;;
11427;SDS011;5770;44.504;11.346;2023-04-25T04:17:58;6.28;;;2.95;;
11427;SDS011;5770;44.504;11.346;2023-04-25T04:20:28;8.80;;;3.38;;
11427;SDS011;5770;44.504;11.346;2023-04-25T04:22:55;8.52;;;3.35;;
11427;SDS011;5770;44.504;11.346;2023-04-25T04:25:22;11.02;;;4.05;;
11427;SDS011;5770;44.504;11.346;2023-04-25T04:27:51;7.07;;;3.15;;
11427;SDS011;5770;44.504;11.346;2023-04-25T04:30:21;5.20;;;3.38;;
11427;SDS011;5770;44.504;11.346;2023-04-25T04:32:50;7.30;;;4.00;;
11427;SDS011;5770;44.504;11.346;2023-04-25T04:35:17;7.38;;;3.47;;
11427;SDS011;5770;44.504;11.346;2023-04-25T04:37:44;8.75;;;3.42;;
11427;SDS011;5770;44.504;11.346;2023-04-25T04:40:13;8.90;;;3.63;;
11427;SDS011;5770;44.504;11.346;2023-04-25T04:42:41;7.32;;;3.67;;
11427;SDS011;5770;44.504;11.346;2023-04-25T04:45:09;7.55;;;4.25;;
11427;SDS011;5770;44.504;11.346;2023-04-25T04:47:36;5.25;;;4.25;;
11427;SDS011;5770;44.504;11.346;2023-04-25T04:50:06;9.57;;;4.88;;
11427;SDS011;5770;44.504;11.346;2023-04-25T04:52:34;5.60;;;4.50;;
11427;SDS011;5770;44.504;11.346;2023-04-25T04:55:01;9.07;;;5.20;;
11427;SDS011;5770;44.504;11.346;2023-04-25T04:57:29;10.48;;;5.70;;
11427;SDS011;5770;44.504;11.346;2023-04-25T04:59:58;12.82;;;5.97;;
11427;SDS011;5770;44.504;11.346;2023-04-25T05:02:25;7.68;;;5.45;;
11427;SDS011;5770;44.504;11.346;2023-04-25T05:04:53;9.60;;;6.30;;
11427;SDS011;5770;44.504;11.346;2023-04-25T05:07:21;9.95;;;6.15;;
11427;SDS011;5770;44.504;11.346;2023-04-25T05:09:48;9.45;;;5.82;;
11427;SDS011;5770;44.504;11.346;2023-04-25T05:12:15;9.63;;;6.28;;
11427;SDS011;5770;44.504;11.346;2023-04-25T05:14:42;11.07;;;6.25;;
11427;SDS011;5770;44.504;11.346;2023-04-25T05:17:09;9.07;;;5.82;;
11427;SDS011;5770;44.504;11.346;2023-04-25T05:19:36;8.77;;;6.30;;
11427;SDS011;5770;44.504;11.346;2023-04-25T05:22:04;7.38;;;6.55;;
11427;SDS011;5770;44.504;11.346;2023-04-25T05:24:33;8.30;;;6.13;;
11427;SDS011;5770;44.504;11.346;2023-04-25T05:27:00;14.73;;;6.97;;
11427;SDS011;5770;44.504;11.346;2023-04-25T05:29:27;10.30;;;6.38;;
11427;SDS011;5770;44.504;11.346;2023-04-25T05:31:54;12.05;;;7.00;;
11427;SDS011;5770;44.504;11.346;2023-04-25T05:34:21;8.05;;;6.72;;
11427;SDS011;5770;44.504;11.346;2023-04-25T05:36:48;7.72;;;7.00;;
11427;SDS011;5770;44.504;11.346;2023-04-25T05:39:16;8.00;;;7.00;;
11427;SDS011;5770;44.504;11.346;2023-04-25T05:41:44;13.15;;;6.63;;
11427;SDS011;5770;44.504;11.346;2023-04-25T05:44:11;8.55;;;7.47;;
11427;SDS011;5770;44.504;11.346;2023-04-25T05:46:38;11.05;;;7.13;;
11427;SDS011;5770;44.504;11.346;2023-04-25T05:49:06;9.27;;;6.68;;
11427;SDS011;5770;44.504;11.346;2023-04-25T05:51:33;8.90;;;7.45;;
11427;SDS011;5770;44.504;11.346;2023-04-25T05:54:00;11.82;;;6.90;;
11427;SDS011;5770;44.504;11.346;2023-04-25T05:56:27;8.10;;;6.28;;
11427;SDS011;5770;44.504;11.346;2023-04-25T05:58:56;10.48;;;7.07;;
11427;SDS011;5770;44.504;11.346;2023-04-25T06:01:23;9.93;;;7.03;;
11427;SDS011;5770;44.504;11.346;2023-04-25T06:03:51;10.05;;;7.68;;
11427;SDS011;5770;44.504;11.346;2023-04-25T06:06:18;10.18;;;7.38;;
11427;SDS011;5770;44.504;11.346;2023-04-25T06:08:46;9.75;;;7.32;;
11427;SDS011;5770;44.504;11.346;2023-04-25T06:11:13;13.38;;;7.22;;
11427;SDS011;5770;44.504;11.346;2023-04-25T06:13:40;9.93;;;7.55;;
11427;SDS011;5770;44.504;11.346;2023-04-25T06:16:09;10.32;;;7.78;;
11427;SDS011;5770;44.504;11.346;2023-04-25T06:18:36;9.68;;;7.43;;
11427;SDS011;5770;44.504;11.346;2023-04-25T06:21:03;11.70;;;7.78;;
11427;SDS011;5770;44.504;11.346;2023-04-25T06:23:31;9.25;;;7.65;;
11427;SDS011;5770;44.504;11.346;2023-04-25T06:25:58;13.73;;;7.45;;
11427;SDS011;5770;44.504;11.346;2023-04-25T06:28:25;10.73;;;8.35;;
11427;SDS011;5770;44.504;11.346;2023-04-25T06:30:53;11.50;;;8.85;;
11427;SDS011;5770;44.504;11.346;2023-04-25T06:33:24;13.32;;;9.80;;
11427;SDS011;5770;44.504;11.346;2023-04-25T06:35:59;11.50;;;8.50;;
11427;SDS011;5770;44.504;11.346;2023-04-25T06:38:29;12.50;;;9.38;;
11427;SDS011;5770;44.504;11.346;2023-04-25T06:40:57;12.82;;;9.75;;
11427;SDS011;5770;44.504;11.346;2023-04-25T06:43:24;11.98;;;9.68;;
11427;SDS011;5770;44.504;11.346;2023-04-25T06:45:52;10.20;;;8.23;;
11427;SDS011;5770;44.504;11.346;2023-04-25T06:48:20;10.18;;;9.15;;
11427;SDS011;5770;44.504;11.346;2023-04-25T06:56:30;11.73;;;8.35;;
11427;SDS011;5770;44.504;11.346;2023-04-25T06:58:57;12.52;;;8.30;;
11427;SDS011;5770;44.504;11.346;2023-04-25T07:01:28;8.38;;;7.65;;
11427;SDS011;5770;44.504;11.346;2023-04-25T07:03:58;7.97;;;7.05;;
11427;SDS011;5770;44.504;11.346;2023-04-25T07:06:25;8.82;;;7.45;;
11427;SDS011;5770;44.504;11.346;2023-04-25T07:08:53;11.15;;;7.50;;
11427;SDS011;5770;44.504;11.346;2023-04-25T07:11:20;7.55;;;6.75;;
11427;SDS011;5770;44.504;11.346;2023-04-25T07:13:49;8.43;;;6.40;;
11427;SDS011;5770;44.504;11.346;2023-04-25T07:16:16;6.75;;;6.15;;
11427;SDS011;5770;44.504;11.346;2023-04-25T07:18:47;6.85;;;5.80;;
11427;SDS011;5770;44.504;11.346;2023-04-25T07:21:14;6.55;;;4.75;;
11427;SDS011;5770;44.504;11.346;2023-04-25T07:23:41;7.95;;;5.60;;
11427;SDS011;5770;44.504;11.346;2023-04-25T07:26:17;5.85;;;5.07;;
11427;SDS011;5770;44.504;11.346;2023-04-25T07:28:50;5.80;;;4.60;;
11427;SDS011;5770;44.504;11.346;2023-04-25T07:31:20;9.07;;;5.13;;
11427;SDS011;5770;44.504;11.346;2023-04-25T07:33:48;6.32;;;4.30;;
11427;SDS011;5770;44.504;11.346;2023-04-25T07:36:15;6.82;;;4.93;;
11427;SDS011;5770;44.504;11.346;2023-04-25T07:38:42;5.75;;;5.05;;
11427;SDS011;5770;44.504;11.346;2023-04-25T07:41:10;7.70;;;4.93;;
11427;SDS011;5770;44.504;11.346;2023-04-25T07:43:37;7.20;;;4.90;;
11427;SDS011;5770;44.504;11.346;2023-04-25T07:46:08;6.80;;;4.97;;
11427;SDS011;5770;44.504;11.346;2023-04-25T07:48:35;8.35;;;5.00;;
11427;SDS011;5770;44.504;11.346;2023-04-25T07:51:03;5.82;;;4.82;;
11427;SDS011;5770;44.504;11.346;2023-04-25T07:53:32;6.45;;;4.88;;
11427;SDS011;5770;44.504;11.346;2023-04-25T07:56:00;8.95;;;5.20;;
11427;SDS011;5770;44.504;11.346;2023-04-25T07:58:30;7.68;;;5.30;;
11427;SDS011;5770;44.504;11.346;2023-04-25T08:01:01;8.07;;;5.47;;
11427;SDS011;5770;44.504;11.346;2023-04-25T08:03:30;11.30;;;4.80;;
11427;SDS011;5770;44.504;11.346;2023-04-25T08:05:57;11.18;;;4.40;;
11427;SDS011;5770;44.504;11.346;2023-04-25T08:08:27;8.45;;;4.40;;
11427;SDS011;5770;44.504;11.346;2023-04-25T08:10:54;9.30;;;5.38;;
11427;SDS011;5770;44.504;11.346;2023-04-25T08:13:21;7.65;;;5.30;;
11427;SDS011;5770;44.504;11.346;2023-04-25T08:15:49;6.85;;;5.03;;
11427;SDS011;5770;44.504;11.346;2023-04-25T08:18:16;8.05;;;5.53;;
11427;SDS011;5770;44.504;11.346;2023-04-25T08:20:45;9.32;;;5.10;;
11427;SDS011;5770;44.504;11.346;2023-04-25T08:23:12;7.43;;;4.97;;
11427;SDS011;5770;44.504;11.346;2023-04-25T08:25:42;5.40;;;4.78;;
11427;SDS011;5770;44.504;11.346;2023-04-25T08:28:10;8.50;;;5.03;;
11427;SDS011;5770;44.504;11.346;2023-04-25T08:30:37;6.03;;;5.07;;
11427;SDS011;5770;44.504;11.346;2023-04-25T08:33:04;5.60;;;5.07;;
11427;SDS011;5770;44.504;11.346;2023-04-25T08:35:34;7.60;;;5.35;;
11427;SDS011;5770;44.504;11.346;2023-04-25T08:38:03;6.60;;;4.95;;
11427;SDS011;5770;44.504;11.346;2023-04-25T08:40:30;6.70;;;4.55;;
11427;SDS011;5770;44.504;11.346;2023-04-25T08:43:02;6.25;;;5.65;;
11427;SDS011;5770;44.504;11.346;2023-04-25T08:45:31;5.50;;;5.00;;
11427;SDS011;5770;44.504;11.346;2023-04-25T08:47:59;6.25;;;5.00;;
11427;SDS011;5770;44.504;11.346;2023-04-25T08:50:28;5.53;;;4.97;;
11427;SDS011;5770;44.504;11.346;2023-04-25T08:52:55;3.88;;;2.88;;
11427;SDS011;5770;44.504;11.346;2023-04-25T08:55:28;2.78;;;2.25;;
11427;SDS011;5770;44.504;11.346;2023-04-25T08:57:55;3.85;;;2.10;;
11427;SDS011;5770;44.504;11.346;2023-04-25T09:00:23;2.78;;;1.90;;
11427;SDS011;5770;44.504;11.346;2023-04-25T09:02:51;3.75;;;2.50;;
11427;SDS011;5770;44.504;11.346;2023-04-25T09:05:18;3.22;;;1.60;;
11427;SDS011;5770;44.504;11.346;2023-04-25T09:07:46;4.13;;;2.17;;
11427;SDS011;5770;44.504;11.346;2023-04-25T09:10:13;5.13;;;1.90;;
11427;SDS011;5770;44.504;11.346;2023-04-25T09:12:42;2.85;;;2.25;;
11427;SDS011;5770;44.504;11.346;2023-04-25T09:15:09;4.10;;;2.30;;
11427;SDS011;5770;44.504;11.346;2023-04-25T09:17:37;1.98;;;1.38;;
11427;SDS011;5770;44.504;11.346;2023-04-25T09:20:10;6.13;;;0.90;;
11427;SDS011;5770;44.504;11.346;2023-04-25T09:22:38;2.05;;;1.30;;
11427;SDS011;5770;44.504;11.346;2023-04-25T09:25:07;2.67;;;0.93;;
11427;SDS011;5770;44.504;11.346;2023-04-25T09:27:35;8.05;;;1.10;;
11427;SDS011;5770;44.504;11.346;2023-04-25T09:30:05;2.35;;;1.20;;
11427;SDS011;5770;44.504;11.346;2023-04-25T09:32:32;1.85;;;1.30;;
11427;SDS011;5770;44.504;11.346;2023-04-25T09:35:00;1.75;;;1.10;;
11427;SDS011;5770;44.504;11.346;2023-04-25T09:37:32;0.90;;;0.90;;
11427;SDS011;5770;44.504;11.346;2023-04-25T09:40:04;3.60;;;1.17;;
11427;SDS011;5770;44.504;11.346;2023-04-25T09:42:33;2.00;;;1.58;;
11427;SDS011;5770;44.504;11.346;2023-04-25T09:45:04;4.35;;;3.60;;
11427;SDS011;5770;44.504;11.346;2023-04-25T09:47:38;2.45;;;1.77;;
11427;SDS011;5770;44.504;11.346;2023-04-25T09:50:15;3.25;;;2.90;;
11427;SDS011;5770;44.504;11.346;2023-04-25T09:52:44;1.33;;;0.80;;
11427;SDS011;5770;44.504;11.346;2023-04-25T09:55:11;2.13;;;1.70;;
11427;SDS011;5770;44.504;11.346;2023-04-25T09:57:38;2.15;;;0.98;;
11427;SDS011;5770;44.504;11.346;2023-04-25T10:00:10;1.20;;;1.00;;
11427;SDS011;5770;44.504;11.346;2023-04-25T10:02:40;1.75;;;1.20;;
11427;SDS011;5770;44.504;11.346;2023-04-25T10:05:09;1.83;;;1.00;;
11427;SDS011;5770;44.504;11.346;2023-04-25T10:07:40;0.77;;;0.55;;
11427;SDS011;5770;44.504;11.346;2023-04-25T10:10:11;0.60;;;0.60;;
11427;SDS011;5770;44.504;11.346;2023-04-25T10:12:39;0.60;;;0.60;;
11427;SDS011;5770;44.504;11.346;2023-04-25T10:15:10;1.20;;;1.08;;
11427;SDS011;5770;44.504;11.346;2023-04-25T10:17:38;0.55;;;0.55;;
11427;SDS011;5770;44.504;11.346;2023-04-25T10:20:07;2.60;;;1.10;;
11427;SDS011;5770;44.504;11.346;2023-04-25T10:22:36;1.15;;;0.90;;
11427;SDS011;5770;44.504;11.346;2023-04-25T10:25:05;1.20;;;1.10;;
11427;SDS011;5770;44.504;11.346;2023-04-25T10:27:34;1.55;;;0.90;;
11427;SDS011;5770;44.504;11.346;2023-04-25T10:30:02;0.60;;;0.60;;
11427;SDS011;5770;44.504;11.346;2023-04-25T10:32:32;1.17;;;0.88;;
11427;SDS011;5770;44.504;11.346;2023-04-25T10:35:09;0.70;;;0.70;;
11427;SDS011;5770;44.504;11.346;2023-04-25T10:37:37;3.20;;;0.65;;
11427;SDS011;5770;44.504;11.346;2023-04-25T10:40:08;1.70;;;1.00;;
11427;SDS011;5770;44.504;11.346;2023-04-25T10:42:35;2.33;;;1.20;;
11427;SDS011;5770;44.504;11.346;2023-04-25T10:45:04;1.17;;;0.73;;
11427;SDS011;5770;44.504;11.346;2023-04-25T10:47:43;2.72;;;1.23;;
11427;SDS011;5770;44.504;11.346;2023-04-25T10:50:11;1.23;;;1.00;;
11427;SDS011;5770;44.504;11.346;2023-04-25T10:52:40;0.70;;;0.70;;
11427;SDS011;5770;44.504;11.346;2023-04-25T10:55:08;1.60;;;1.10;;
11427;SDS011;5770;44.504;11.346;2023-04-25T10:57:36;0.82;;;0.82;;
11427;SDS011;5770;44.504;11.346;2023-04-25T11:00:13;1.10;;;0.80;;
11427;SDS011;5770;44.504;11.346;2023-04-25T11:02:45;4.47;;;1.35;;
11427;SDS011;5770;44.504;11.346;2023-04-25T11:05:18;1.80;;;1.52;;
11427;SDS011;5770;44.504;11.346;2023-04-25T11:07:49;2.35;;;1.23;;
11427;SDS011;5770;44.504;11.346;2023-04-25T11:10:17;1.20;;;1.10;;
11427;SDS011;5770;44.504;11.346;2023-04-25T11:12:45;2.85;;;2.20;;
11427;SDS011;5770;44.504;11.346;2023-04-25T11:15:13;3.65;;;2.53;;
11427;SDS011;5770;44.504;11.346;2023-04-25T11:17:40;2.25;;;1.48;;
11427;SDS011;5770;44.504;11.346;2023-04-25T11:20:10;3.83;;;0.70;;
11427;SDS011;5770;44.504;11.346;2023-04-25T11:22:39;1.30;;;1.20;;
11427;SDS011;5770;44.504;11.346;2023-04-25T11:25:08;0.85;;;0.85;;
11427;SDS011;5770;44.504;11.346;2023-04-25T11:27:48;0.63;;;0.63;;
11427;SDS011;5770;44.504;11.346;2023-04-25T11:30:16;0.77;;;0.77;;
11427;SDS011;5770;44.504;11.346;2023-04-25T11:32:44;4.00;;;0.93;;
11427;SDS011;5770;44.504;11.346;2023-04-25T11:35:13;0.75;;;0.75;;
11427;SDS011;5770;44.504;11.346;2023-04-25T11:37:40;0.93;;;0.73;;
11427;SDS011;5770;44.504;11.346;2023-04-25T11:40:08;0.70;;;0.70;;
11427;SDS011;5770;44.504;11.346;2023-04-25T11:42:36;2.00;;;0.90;;
11427;SDS011;5770;44.504;11.346;2023-04-25T11:45:05;1.15;;;0.90;;
11427;SDS011;5770;44.504;11.346;2023-04-25T11:47:33;2.20;;;1.08;;
11427;SDS011;5770;44.504;11.346;2023-04-25T11:50:02;1.67;;;0.70;;
11427;SDS011;5770;44.504;11.346;2023-04-25T11:52:40;0.82;;;0.82;;
11427;SDS011;5770;44.504;11.346;2023-04-25T11:55:09;0.65;;;0.50;;
11427;SDS011;5770;44.504;11.346;2023-04-25T11:57:37;0.50;;;0.50;;
11427;SDS011;5770;44.504;11.346;2023-04-25T12:00:08;1.90;;;0.80;;
11427;SDS011;5770;44.504;11.346;2023-04-25T12:02:40;0.63;;;0.60;;
11427;SDS011;5770;44.504;11.346;2023-04-25T12:05:14;0.47;;;0.47;;
11427;SDS011;5770;44.504;11.346;2023-04-25T12:07:43;0.60;;;0.60;;
11427;SDS011;5770;44.504;11.346;2023-04-25T12:10:11;1.10;;;0.47;;
11427;SDS011;5770;44.504;11.346;2023-04-25T12:12:41;1.63;;;1.52;;
11427;SDS011;5770;44.504;11.346;2023-04-25T12:15:12;0.82;;;0.82;;
11427;SDS011;5770;44.504;11.346;2023-04-25T12:17:42;2.30;;;0.70;;
11427;SDS011;5770;44.504;11.346;2023-04-25T12:20:12;0.93;;;0.68;;
11427;SDS011;5770;44.504;11.346;2023-04-25T12:22:42;0.50;;;0.50;;
11427;SDS011;5770;44.504;11.346;2023-04-25T12:25:12;0.45;;;0.45;;
11427;SDS011;5770;44.504;11.346;2023-04-25T12:27:43;2.20;;;1.08;;
11427;SDS011;5770;44.504;11.346;2023-04-25T12:30:11;1.17;;;0.60;;
11427;SDS011;5770;44.504;11.346;2023-04-25T12:32:38;2.22;;;0.68;;
11427;SDS011;5770;44.504;11.346;2023-04-25T12:35:06;1.73;;;0.88;;
11427;SDS011;5770;44.504;11.346;2023-04-25T12:37:35;0.40;;;0.40;;
11427;SDS011;5770;44.504;11.346;2023-04-25T12:40:04;2.60;;;0.75;;
11427;SDS011;5770;44.504;11.346;2023-04-25T12:42:32;0.75;;;0.70;;
11427;SDS011;5770;44.504;11.346;2023-04-25T12:45:02;0.75;;;0.60;;
11427;SDS011;5770;44.504;11.346;2023-04-25T12:47:29;3.85;;;0.88;;
11427;SDS011;5770;44.504;11.346;2023-04-25T12:49:56;1.42;;;0.70;;
11427;SDS011;5770;44.504;11.346;2023-04-25T12:52:24;0.60;;;0.60;;
11427;SDS011;5770;44.504;11.346;2023-04-25T12:54:51;1.50;;;0.60;;
11427;SDS011;5770;44.504;11.346;2023-04-25T12:57:21;0.52;;;0.52;;
11427;SDS011;5770;44.504;11.346;2023-04-25T12:59:49;0.68;;;0.68;;
11427;SDS011;5770;44.504;11.346;2023-04-25T13:02:16;0.65;;;0.65;;
11427;SDS011;5770;44.504;11.346;2023-04-25T13:04:44;1.13;;;0.70;;
11427;SDS011;5770;44.504;11.346;2023-04-25T13:07:11;0.90;;;0.90;;
11427;SDS011;5770;44.504;11.346;2023-04-25T13:09:38;0.82;;;0.77;;
11427;SDS011;5770;44.504;11.346;2023-04-25T13:12:06;0.80;;;0.77;;
11427;SDS011;5770;44.504;11.346;2023-04-25T13:14:34;2.03;;;0.88;;
11427;SDS011;5770;44.504;11.346;2023-04-25T13:17:01;1.73;;;0.60;;
11427;SDS011;5770;44.504;11.346;2023-04-25T13:19:29;1.33;;;0.98;;
11427;SDS011;5770;44.504;11.346;2023-04-25T13:21:56;3.17;;;0.75;;
11427;SDS011;5770;44.504;11.346;2023-04-25T13:24:24;0.60;;;0.60;;
11427;SDS011;5770;44.504;11.346;2023-04-25T13:26:53;0.50;;;0.50;;
11427;SDS011;5770;44.504;11.346;2023-04-25T13:29:20;0.45;;;0.45;;
11427;SDS011;5770;44.504;11.346;2023-04-25T13:31:49;0.63;;;0.60;;
11427;SDS011;5770;44.504;11.346;2023-04-25T13:34:16;1.75;;;0.60;;
11427;SDS011;5770;44.504;11.346;2023-04-25T13:36:43;1.27;;;0.65;;
11427;SDS011;5770;44.504;11.346;2023-04-25T13:39:10;1.35;;;0.90;;
11427;SDS011;5770;44.504;11.346;2023-04-25T13:41:40;2.83;;;0.90;;
11427;SDS011;5770;44.504;11.346;2023-04-25T13:44:07;7.50;;;1.15;;
11427;SDS011;5770;44.504;11.346;2023-04-25T13:46:34;8.02;;;1.58;;
11427;SDS011;5770;44.504;11.346;2023-04-25T13:49:03;1.63;;;1.00;;
11427;SDS011;5770;44.504;11.346;2023-04-25T13:51:30;5.25;;;1.05;;
11427;SDS011;5770;44.504;11.346;2023-04-25T13:53:57;2.78;;;0.98;;
11427;SDS011;5770;44.504;11.346;2023-04-25T13:56:25;2.17;;;0.95;;
11427;SDS011;5770;44.504;11.346;2023-04-25T13:58:52;5.22;;;1.42;;
11427;SDS011;5770;44.504;11.346;2023-04-25T14:01:20;3.13;;;1.20;;
11427;SDS011;5770;44.504;11.346;2023-04-25T14:03:47;4.75;;;1.10;;
11427;SDS011;5770;44.504;11.346;2023-04-25T14:06:16;5.72;;;1.35;;
11427;SDS011;5770;44.504;11.346;2023-04-25T14:08:47;5.15;;;1.23;;
11427;SDS011;5770;44.504;11.346;2023-04-25T14:11:15;2.53;;;1.15;;
11427;SDS011;5770;44.504;11.346;2023-04-25T14:13:43;3.45;;;1.30;;
11427;SDS011;5770;44.504;11.346;2023-04-25T14:16:10;7.00;;;1.55;;
11427;SDS011;5770;44.504;11.346;2023-04-25T14:18:37;6.88;;;1.77;;
11427;SDS011;5770;44.504;11.346;2023-04-25T14:21:04;1.75;;;0.90;;
11427;SDS011;5770;44.504;11.346;2023-04-25T14:23:33;2.63;;;1.08;;
11427;SDS011;5770;44.504;11.346;2023-04-25T14:26:00;3.42;;;1.20;;
11427;SDS011;5770;44.504;11.346;2023-04-25T14:28:27;3.25;;;1.20;;
11427;SDS011;5770;44.504;11.346;2023-04-25T14:30:54;4.72;;;1.45;;
11427;SDS011;5770;44.504;11.346;2023-04-25T14:33:21;5.47;;;1.15;;
11427;SDS011;5770;44.504;11.346;2023-04-25T14:35:48;3.00;;;1.20;;
11427;SDS011;5770;44.504;11.346;2023-04-25T14:38:16;2.90;;;1.02;;
11427;SDS011;5770;44.504;11.346;2023-04-25T14:40:49;2.10;;;0.98;;
11427;SDS011;5770;44.504;11.346;2023-04-25T14:43:16;2.65;;;1.05;;
11427;SDS011;5770;44.504;11.346;2023-04-25T14:45:44;2.90;;;0.93;;
11427;SDS011;5770;44.504;11.346;2023-04-25T14:48:11;3.00;;;0.90;;
11427;SDS011;5770;44.504;11.346;2023-04-25T14:50:43;4.72;;;1.20;;
11427;SDS011;5770;44.504;11.346;2023-04-25T14:53:10;4.88;;;0.90;;
11427;SDS011;5770;44.504;11.346;2023-04-25T14:55:43;2.88;;;1.27;;
11427;SDS011;5770;44.504;11.346;2023-04-25T14:58:12;2.47;;;0.90;;